createdAt,value
2023-01-17T00:02:17.666Z,100666.75
2023-01-17T00:05:04.409Z,100666.03
2023-01-17T00:07:50.901Z,100659.94
2023-01-17T00:10:28.034Z,100666.25
2023-01-17T00:13:01.344Z,100671.56
2023-01-17T00:15:31.840Z,100669.06
2023-01-17T00:18:00.709Z,100672.56
2023-01-17T00:20:50.179Z,100673.34
2023-01-17T00:23:39.207Z,100677.78
2023-01-17T00:26:17.576Z,100678.63
2023-01-17T00:28:46.197Z,100686.59
2023-01-17T00:31:16.514Z,100688.44
2023-01-17T00:33:44.725Z,100685.00
2023-01-17T00:36:13.747Z,100693.00
2023-01-17T00:38:41.967Z,100694.94
2023-01-17T00:41:12.476Z,100688.91
2023-01-17T00:43:59.432Z,100699.53
2023-01-17T00:46:46.152Z,100706.56
2023-01-17T00:49:32.925Z,100708.22
2023-01-17T00:52:19.847Z,100711.78
2023-01-17T00:55:06.375Z,100707.34
2023-01-17T00:57:53.058Z,100718.94
2023-01-17T01:00:39.679Z,100713.78
2023-01-17T01:03:30.795Z,100721.75
2023-01-17T01:06:17.452Z,100716.63
2023-01-17T01:09:03.912Z,100722.84
2023-01-17T01:11:50.431Z,100726.38
2023-01-17T01:14:37.096Z,100730.00
2023-01-17T01:17:23.963Z,100728.41
2023-01-17T01:20:10.408Z,100734.59
2023-01-17T01:22:57.053Z,100732.00
2023-01-17T01:25:43.595Z,100730.41
2023-01-17T01:28:32.034Z,100733.13
2023-01-17T01:31:22.482Z,100726.25
2023-01-17T01:33:53.424Z,100729.03
2023-01-17T01:36:22.232Z,100732.59
2023-01-17T01:38:51.114Z,100732.59
2023-01-17T01:41:19.563Z,100740.63
2023-01-17T01:43:50.540Z,100745.03
2023-01-17T01:46:40.787Z,100751.25
2023-01-17T01:49:21.588Z,100754.03
2023-01-17T01:51:57.415Z,100766.44
2023-01-17T01:54:48.664Z,100758.56
2023-01-17T01:57:22.058Z,100765.69
2023-01-17T01:59:57.441Z,100768.38
2023-01-17T02:02:26.334Z,100765.88
2023-01-17T02:04:54.788Z,100769.47
2023-01-17T02:07:31.323Z,100762.56
2023-01-17T02:10:00.197Z,100777.69
2023-01-17T02:12:28.914Z,100780.41
2023-01-17T02:14:57.570Z,100777.91
2023-01-17T02:17:31.090Z,100773.63
2023-01-17T02:20:24.059Z,100778.94
2023-01-17T02:23:25.471Z,100777.38
2023-01-17T02:26:14.989Z,100780.16
2023-01-17T02:28:45.871Z,100777.66
2023-01-17T02:31:35.324Z,100778.72
2023-01-17T02:34:29.708Z,100781.44
2023-01-17T02:37:25.649Z,100785.91
2023-01-17T02:40:22.276Z,100782.41
2023-01-17T02:42:59.625Z,100781.59
2023-01-17T02:45:28.382Z,100785.22
2023-01-17T02:47:56.720Z,100787.06
2023-01-17T02:50:51.379Z,100791.50
2023-01-17T02:53:52.013Z,100799.50
2023-01-17T02:56:48.892Z,100803.06
2023-01-17T02:59:32.218Z,100811.09
2023-01-17T03:02:38.549Z,100812.88
2023-01-17T03:05:20.229Z,100808.56
2023-01-17T03:07:49.488Z,100811.25
2023-01-17T03:10:20.083Z,100821.78
2023-01-17T03:12:48.984Z,100831.47
2023-01-17T03:15:18.865Z,100836.78
2023-01-17T03:17:51.960Z,100840.31
2023-01-17T03:20:22.483Z,100837.66
2023-01-17T03:22:51.231Z,100837.63
2023-01-17T03:25:19.609Z,100842.00
2023-01-17T03:27:48.065Z,100840.22
2023-01-17T03:30:16.978Z,100847.28
2023-01-17T03:32:45.228Z,100851.75
2023-01-17T03:35:13.551Z,100844.75
2023-01-17T03:37:41.990Z,100850.94
2023-01-17T03:40:10.788Z,100848.28
2023-01-17T03:42:39.078Z,100851.84
2023-01-17T03:45:07.742Z,100858.88
2023-01-17T03:47:37.131Z,100863.19
2023-01-17T03:50:06.104Z,100864.00
2023-01-17T03:52:34.408Z,100870.16
2023-01-17T03:55:03.563Z,100869.28
2023-01-17T03:57:31.957Z,100875.41
2023-01-17T04:00:00.289Z,100879.75
2023-01-17T04:02:28.895Z,100878.84
2023-01-17T04:04:57.314Z,100882.38
2023-01-17T04:07:25.740Z,100878.84
2023-01-17T04:09:54.012Z,100887.66
2023-01-17T04:12:22.273Z,100886.78
2023-01-17T04:14:50.523Z,100893.84
2023-01-17T04:17:20.802Z,100893.00
2023-01-17T04:19:49.252Z,100897.41
2023-01-17T04:22:17.654Z,100892.13
2023-01-17T04:24:45.999Z,100907.06
2023-01-17T04:27:15.246Z,100910.59
2023-01-17T04:29:45.342Z,100899.09
2023-01-17T04:32:15.699Z,100907.88
2023-01-17T04:34:44.087Z,100913.19
2023-01-17T04:37:12.541Z,100918.50
2023-01-17T04:39:40.930Z,100907.94
2023-01-17T04:42:09.261Z,100915.00
2023-01-17T04:44:37.595Z,100918.56
2023-01-17T04:47:05.969Z,100921.19
2023-01-17T04:49:34.333Z,100916.81
2023-01-17T04:52:02.684Z,100922.09
2023-01-17T04:54:30.940Z,100933.66
2023-01-17T04:56:59.234Z,100926.63
2023-01-17T04:59:27.703Z,100932.81
2023-01-17T05:01:56.022Z,100936.34
2023-01-17T05:04:24.521Z,100940.75
2023-01-17T05:06:52.852Z,100949.56
2023-01-17T05:09:21.117Z,100946.91
2023-01-17T05:11:49.413Z,100945.13
2023-01-17T05:14:17.767Z,100945.13
2023-01-17T05:16:46.069Z,100954.81
2023-01-17T05:19:18.083Z,100959.25
2023-01-17T05:21:47.103Z,100953.00
2023-01-17T05:24:15.440Z,100954.81
2023-01-17T05:26:44.168Z,100959.25
2023-01-17T05:29:12.943Z,100963.72
2023-01-17T05:31:41.232Z,100961.13
2023-01-17T05:34:09.612Z,100964.63
2023-01-17T05:36:37.917Z,100972.56
2023-01-17T05:39:06.327Z,100979.63
2023-01-17T05:41:34.649Z,100973.47
2023-01-17T05:44:02.998Z,100969.97
2023-01-17T05:46:31.558Z,100973.47
2023-01-17T05:48:59.975Z,100969.91
2023-01-17T05:51:28.407Z,100972.56
2023-01-17T05:53:56.690Z,100974.38
2023-01-17T05:56:25.274Z,100982.34
2023-01-17T05:58:53.579Z,100982.44
2023-01-17T06:01:21.898Z,100989.50
2023-01-17T06:03:50.242Z,100983.34
2023-01-17T06:06:18.611Z,100998.31
2023-01-17T06:08:46.905Z,100987.75
2023-01-17T06:11:15.375Z,100992.19
2023-01-17T06:13:43.674Z,100994.78
2023-01-17T06:16:12.024Z,100998.28
2023-01-17T06:18:40.291Z,100999.16
2023-01-17T06:21:08.537Z,101007.03
2023-01-17T06:23:36.838Z,101007.09
2023-01-17T06:26:05.628Z,101008.00
2023-01-17T06:28:34.074Z,101017.72
2023-01-17T06:31:09.868Z,101015.13
2023-01-17T06:33:38.385Z,101017.81
2023-01-17T06:36:07.383Z,101008.22
2023-01-17T06:38:35.844Z,101021.47
2023-01-17T06:41:07.606Z,101025.94
2023-01-17T06:43:35.959Z,101021.59
2023-01-17T06:46:04.227Z,101028.75
2023-01-17T06:48:32.509Z,101029.69
2023-01-17T06:51:00.822Z,101032.41
2023-01-17T06:53:29.200Z,101028.97
2023-01-17T06:55:58.624Z,101040.47
2023-01-17T06:58:27.043Z,101040.47
2023-01-17T07:00:55.486Z,101041.38
2023-01-17T07:03:26.386Z,101037.00
2023-01-17T07:05:54.660Z,101041.44
2023-01-17T07:08:23.239Z,101049.44
2023-01-17T07:10:51.576Z,101046.00
2023-01-17T07:13:19.872Z,101048.69
2023-01-17T07:15:48.204Z,101046.06
2023-01-17T07:18:21.373Z,101051.34
2023-01-17T07:20:53.090Z,101047.00
2023-01-17T07:23:23.317Z,101042.66
2023-01-17T07:25:56.374Z,101042.75
2023-01-17T07:28:26.244Z,101040.19
2023-01-17T07:30:55.163Z,101050.84
2023-01-17T07:33:23.564Z,101054.34
2023-01-17T07:35:51.956Z,101062.25
2023-01-17T07:38:21.530Z,101058.78
2023-01-17T07:40:49.887Z,101064.06
2023-01-17T07:43:18.234Z,101067.63
2023-01-17T07:45:51.615Z,101067.66
2023-01-17T07:48:21.648Z,101078.28
2023-01-17T07:50:55.155Z,101081.84
2023-01-17T07:53:26.152Z,101074.84
2023-01-17T07:55:55.329Z,101085.47
2023-01-17T07:58:23.779Z,101081.09
2023-01-17T08:00:52.216Z,101082.91
2023-01-17T08:03:20.527Z,101087.34
2023-01-17T08:05:58.496Z,101085.63
2023-01-17T08:08:27.968Z,101084.81
2023-01-17T08:10:56.545Z,101090.09
2023-01-17T08:13:25.295Z,101090.09
2023-01-17T08:15:55.338Z,101086.53
2023-01-17T08:18:23.653Z,101091.88
2023-01-17T08:20:51.888Z,101089.25
2023-01-17T08:23:20.165Z,101093.69
2023-01-17T08:25:48.564Z,101099.84
2023-01-17T08:28:16.844Z,101091.09
2023-01-17T08:30:45.308Z,101093.78
2023-01-17T08:33:13.549Z,101098.25
2023-01-17T08:35:42.348Z,101097.38
2023-01-17T08:38:10.794Z,101102.66
2023-01-17T08:40:39.268Z,101107.94
2023-01-17T08:43:07.569Z,101107.06
2023-01-17T08:45:35.946Z,101099.19
2023-01-17T08:48:04.262Z,101097.41
2023-01-17T08:50:32.538Z,101105.31
2023-01-17T08:53:01.511Z,101104.47
2023-01-17T08:55:30.153Z,101093.94
2023-01-17T08:57:58.862Z,101092.22
2023-01-17T09:00:29.356Z,101099.28
2023-01-17T09:02:57.843Z,101103.69
2023-01-17T09:05:26.195Z,101101.91
2023-01-17T09:07:55.634Z,101104.56
2023-01-17T09:10:24.904Z,101101.94
2023-01-17T09:12:53.174Z,101102.84
2023-01-17T09:15:21.413Z,101107.31
2023-01-17T09:17:49.699Z,101109.97
2023-01-17T09:20:18.308Z,101104.72
2023-01-17T09:22:46.621Z,101104.75
2023-01-17T09:25:14.889Z,101111.81
2023-01-17T09:27:47.071Z,101108.31
2023-01-17T09:30:15.841Z,101108.31
2023-01-17T09:32:44.121Z,101111.00
2023-01-17T09:35:12.777Z,101111.91
2023-01-17T09:37:41.049Z,101116.28
2023-01-17T09:40:12.177Z,101115.41
2023-01-17T09:42:42.095Z,101120.72
2023-01-17T09:45:19.096Z,101117.22
2023-01-17T09:47:52.952Z,101120.75
2023-01-17T09:50:31.734Z,101122.59
2023-01-17T09:53:13.111Z,101121.75
2023-01-17T09:55:57.520Z,101124.38
2023-01-17T09:58:40.828Z,101124.38
2023-01-17T10:01:16.435Z,101129.66
2023-01-17T10:04:10.783Z,101133.19
2023-01-17T10:07:06.000Z,101136.75
2023-01-17T10:09:51.913Z,101132.41
2023-01-17T10:12:49.494Z,101133.34
2023-01-17T10:15:45.643Z,101136.81
2023-01-17T10:18:42.235Z,101138.59
2023-01-17T10:21:35.583Z,101143.03
2023-01-17T10:24:41.950Z,101150.03
2023-01-17T10:27:30.272Z,101152.69
2023-01-17T10:29:59.736Z,101154.47
2023-01-17T10:32:32.528Z,101158.88
2023-01-17T10:35:16.363Z,101163.25
2023-01-17T10:37:46.621Z,101160.59
2023-01-17T10:40:25.566Z,101163.25
2023-01-17T10:43:14.353Z,101166.75
2023-01-17T10:45:50.072Z,101164.09
2023-01-17T10:48:39.667Z,101169.38
2023-01-17T10:51:22.940Z,101172.00
2023-01-17T10:54:29.969Z,101166.75
2023-01-17T10:56:59.974Z,101165.88
2023-01-17T10:59:34.504Z,101170.28
2023-01-17T11:02:08.313Z,101165.03
2023-01-17T11:04:40.028Z,101169.44
2023-01-17T11:07:28.928Z,101172.97
2023-01-17T11:09:59.279Z,101181.75
2023-01-17T11:12:39.434Z,101173.00
2023-01-17T11:15:10.435Z,101180.88
2023-01-17T11:17:46.533Z,101169.50
2023-01-17T11:20:25.140Z,101177.38
2023-01-17T11:23:17.116Z,101172.13
2023-01-17T11:26:03.265Z,101165.13
2023-01-17T11:28:36.766Z,101166.91
2023-01-17T11:31:29.517Z,101173.91
2023-01-17T11:34:27.978Z,101185.31
2023-01-17T11:37:17.695Z,101188.81
2023-01-17T11:39:49.016Z,101188.81
2023-01-17T11:42:38.504Z,101186.19
2023-01-17T11:45:31.571Z,101195.81
2023-01-17T11:48:12.114Z,101201.09
2023-01-17T11:50:55.033Z,101191.44
2023-01-17T11:53:28.357Z,101205.50
2023-01-17T11:56:28.901Z,101208.97
2023-01-17T11:59:36.049Z,101193.22
2023-01-17T12:02:07.246Z,101191.47
2023-01-17T12:04:43.861Z,101191.47
2023-01-17T12:07:41.495Z,101201.13
2023-01-17T12:10:26.917Z,101198.50
2023-01-17T12:13:31.295Z,101201.97
2023-01-17T12:16:23.864Z,101200.22
2023-01-17T12:19:27.801Z,101196.72
2023-01-17T12:22:37.302Z,101205.47
2023-01-17T12:25:15.704Z,101206.31
2023-01-17T12:28:36.884Z,101210.72
2023-01-17T12:31:05.344Z,101198.47
2023-01-17T12:33:57.629Z,101212.50
2023-01-17T12:36:49.864Z,101212.47
2023-01-17T12:39:21.843Z,101219.50
2023-01-17T12:42:00.250Z,101226.47
2023-01-17T12:44:54.074Z,101228.22
2023-01-17T12:47:23.153Z,101232.59
2023-01-17T12:50:09.456Z,101239.59
2023-01-17T12:52:49.759Z,101239.59
2023-01-17T12:55:24.807Z,101244.84
2023-01-17T12:58:01.358Z,101238.72
2023-01-17T13:00:31.272Z,101230.84
2023-01-17T13:03:21.188Z,101236.97
2023-01-17T13:05:49.712Z,101235.22
2023-01-17T13:08:27.853Z,101237.84
2023-01-17T13:11:13.098Z,101242.22
2023-01-17T13:13:44.238Z,101247.47
2023-01-17T13:16:21.278Z,101257.06
2023-01-17T13:18:52.810Z,101254.44
2023-01-17T13:21:36.223Z,101250.97
2023-01-17T13:24:43.979Z,101246.56
2023-01-17T13:27:32.816Z,101252.72
2023-01-17T13:30:06.768Z,101255.34
2023-01-17T13:33:11.193Z,101251.81
2023-01-17T13:35:49.526Z,101256.19
2023-01-17T13:38:55.790Z,101247.44
2023-01-17T13:41:51.562Z,101252.72
2023-01-17T13:44:23.134Z,101268.44
2023-01-17T13:47:07.467Z,101264.91
2023-01-17T13:49:57.023Z,101271.03
2023-01-17T13:52:25.229Z,101276.28
2023-01-17T13:54:56.115Z,101272.78
2023-01-17T13:57:29.486Z,101274.53
2023-01-17T14:00:00.052Z,101277.16
2023-01-17T14:02:34.521Z,101272.75
2023-01-17T14:05:24.968Z,101284.09
2023-01-17T14:07:59.837Z,101286.72
2023-01-17T14:10:41.795Z,101292.00
2023-01-17T14:13:36.611Z,101295.47
2023-01-17T14:16:27.998Z,101306.81
2023-01-17T14:18:57.112Z,101310.28
2023-01-17T14:21:33.216Z,101313.81
2023-01-17T14:24:13.917Z,101310.31
2023-01-17T14:27:15.340Z,101319.06
2023-01-17T14:30:03.349Z,101320.81
2023-01-17T14:32:36.208Z,101333.94
2023-01-17T14:35:06.589Z,101321.66
2023-01-17T14:37:34.851Z,101326.88
2023-01-17T14:40:03.379Z,101326.84
2023-01-17T14:42:34.599Z,101323.38
2023-01-17T14:45:09.550Z,101331.25
2023-01-17T14:47:40.207Z,101328.63
2023-01-17T14:50:26.804Z,101339.09
2023-01-17T14:53:16.538Z,101337.31
2023-01-17T14:55:56.028Z,101342.56
2023-01-17T14:58:32.603Z,101346.03
2023-01-17T15:01:12.533Z,101341.66
2023-01-17T15:03:55.532Z,101354.75
2023-01-17T15:06:26.093Z,101359.16
2023-01-17T15:08:54.938Z,101358.28
2023-01-17T15:11:33.740Z,101358.28
2023-01-17T15:14:06.682Z,101358.31
2023-01-17T15:16:38.111Z,101361.78
2023-01-17T15:19:16.368Z,101370.53
2023-01-17T15:21:47.119Z,101368.81
2023-01-17T15:24:23.015Z,101376.63
2023-01-17T15:26:51.512Z,101377.50
2023-01-17T15:29:31.959Z,101383.66
2023-01-17T15:32:02.972Z,101383.66
2023-01-17T15:34:35.313Z,101391.53
2023-01-17T15:37:09.745Z,101392.38
2023-01-17T15:39:42.953Z,101399.38
2023-01-17T15:42:24.438Z,101398.50
2023-01-17T15:45:03.424Z,101400.25
2023-01-17T15:47:36.370Z,101401.97
2023-01-17T15:50:30.899Z,101402.88
2023-01-17T15:53:02.666Z,101410.75
2023-01-17T15:55:36.725Z,101420.31
2023-01-17T15:58:22.479Z,101425.59
2023-01-17T16:00:50.820Z,101419.50
2023-01-17T16:03:30.094Z,101422.16
2023-01-17T16:06:01.402Z,101424.81
2023-01-17T16:08:40.335Z,101437.06
2023-01-17T16:11:12.436Z,101441.50
2023-01-17T16:13:43.049Z,101450.28
2023-01-17T16:16:31.462Z,101452.06
2023-01-17T16:19:03.195Z,101453.84
2023-01-17T16:21:33.018Z,101458.28
2023-01-17T16:24:01.829Z,101461.81
2023-01-17T16:26:30.178Z,101471.41
2023-01-17T16:28:58.521Z,101463.56
2023-01-17T16:31:26.909Z,101471.47
2023-01-17T16:33:55.213Z,101475.88
2023-01-17T16:36:23.807Z,101481.19
2023-01-17T16:38:53.247Z,101489.13
2023-01-17T16:41:22.339Z,101488.25
2023-01-17T16:44:02.589Z,101492.66
2023-01-17T16:46:31.299Z,101499.69
2023-01-17T16:49:02.705Z,101497.97
2023-01-17T16:51:31.521Z,101503.28
2023-01-17T16:54:00.419Z,101506.81
2023-01-17T16:56:28.944Z,101509.47
2023-01-17T16:58:57.467Z,101513.88
2023-01-17T17:01:26.156Z,101513.88
2023-01-17T17:03:54.706Z,101518.31
2023-01-17T17:06:22.978Z,101516.53
2023-01-17T17:08:51.310Z,101521.84
2023-01-17T17:11:22.219Z,101530.59
2023-01-17T17:13:52.219Z,101530.63
2023-01-17T17:16:27.486Z,101535.03
2023-01-17T17:18:58.937Z,101534.16
2023-01-17T17:21:28.807Z,101549.94
2023-01-17T17:23:59.478Z,101549.97
2023-01-17T17:26:31.834Z,101548.22
2023-01-17T17:29:00.233Z,101553.47
2023-01-17T17:31:28.669Z,101557.00
2023-01-17T17:34:00.896Z,101552.59
2023-01-17T17:36:29.641Z,101555.22
2023-01-17T17:38:59.219Z,101547.31
2023-01-17T17:41:30.283Z,101558.72
2023-01-17T17:43:58.728Z,101557.81
2023-01-17T17:46:28.369Z,101568.38
2023-01-17T17:48:58.144Z,101562.19
2023-01-17T17:51:38.162Z,101560.44
2023-01-17T17:54:11.681Z,101557.81
2023-01-17T17:56:41.162Z,101568.31
2023-01-17T17:59:10.663Z,101568.28
2023-01-17T18:01:39.034Z,101570.03
2023-01-17T18:04:08.580Z,101571.75
2023-01-17T18:06:39.394Z,101574.38
2023-01-17T18:09:10.277Z,101571.72
2023-01-17T18:11:41.147Z,101569.06
2023-01-17T18:14:11.799Z,101562.88
2023-01-17T18:16:42.991Z,101562.88
2023-01-17T18:19:20.858Z,101569.91
2023-01-17T18:21:51.152Z,101562.84
2023-01-17T18:24:21.918Z,101573.34
2023-01-17T18:26:59.732Z,101570.66
2023-01-17T18:29:28.647Z,101576.78
2023-01-17T18:31:57.871Z,101575.03
2023-01-17T18:34:30.072Z,101570.63
2023-01-17T18:36:59.178Z,101579.38
2023-01-17T18:39:31.055Z,101582.03
2023-01-17T18:41:59.859Z,101587.28
2023-01-17T18:44:28.515Z,101587.25
2023-01-17T18:47:02.718Z,101581.94
2023-01-17T18:49:31.317Z,101582.75
2023-01-17T18:51:59.850Z,101578.31
2023-01-17T18:54:29.147Z,101568.56
2023-01-17T18:56:57.457Z,101572.97
2023-01-17T18:59:26.682Z,101569.41
2023-01-17T19:01:55.025Z,101566.69
2023-01-17T19:04:23.427Z,101558.69
2023-01-17T19:06:52.073Z,101563.88
2023-01-17T19:09:20.428Z,101564.66
2023-01-17T19:11:48.757Z,101563.75
2023-01-17T19:14:17.312Z,101565.41
2023-01-17T19:16:45.950Z,101555.66
2023-01-17T19:19:16.532Z,101555.59
2023-01-17T19:21:45.271Z,101559.94
2023-01-17T19:24:16.214Z,101552.81
2023-01-17T19:26:44.544Z,101550.97
2023-01-17T19:29:13.152Z,101549.09
2023-01-17T19:31:45.376Z,101542.88
2023-01-17T19:34:15.525Z,101537.53
2023-01-17T19:36:44.143Z,101535.69
2023-01-17T19:39:12.634Z,101531.22
2023-01-17T19:41:46.421Z,101521.38
2023-01-17T19:44:15.740Z,101521.28
2023-01-17T19:46:46.968Z,101527.38
2023-01-17T19:49:17.218Z,101516.75
2023-01-17T19:51:45.692Z,101514.91
2023-01-17T19:54:16.066Z,101515.69
2023-01-17T19:56:44.483Z,101514.75
2023-01-17T19:59:14.639Z,101510.28
2023-01-17T20:01:43.053Z,101502.22
2023-01-17T20:04:11.384Z,101503.94
2023-01-17T20:06:39.795Z,101498.59
2023-01-17T20:09:08.157Z,101495.88
2023-01-17T20:11:36.500Z,101503.69
2023-01-17T20:14:08.448Z,101491.28
2023-01-17T20:16:40.577Z,101487.66
2023-01-17T20:19:09.110Z,101484.00
2023-01-17T20:21:37.438Z,101486.59
2023-01-17T20:24:06.117Z,101493.59
2023-01-17T20:26:36.192Z,101484.69
2023-01-17T20:29:12.855Z,101482.00
2023-01-17T20:31:43.639Z,101482.00
2023-01-17T20:34:14.364Z,101483.72
2023-01-17T20:36:43.310Z,101483.66
2023-01-17T20:39:14.121Z,101476.56
2023-01-17T20:41:44.589Z,101475.63
2023-01-17T20:44:16.011Z,101472.91
2023-01-17T20:46:45.172Z,101465.75
2023-01-17T20:49:16.908Z,101462.09
2023-01-17T20:51:46.513Z,101461.06
2023-01-17T20:54:17.369Z,101463.53
2023-01-17T20:56:48.035Z,101459.94
2023-01-17T20:59:18.734Z,101459.91
2023-01-17T21:01:47.547Z,101457.16
2023-01-17T21:04:16.480Z,101459.66
2023-01-17T21:06:45.294Z,101456.03
2023-01-17T21:09:15.656Z,101455.94
2023-01-17T21:11:44.282Z,101452.31
2023-01-17T21:14:12.673Z,101456.53
2023-01-17T21:16:41.454Z,101442.28
2023-01-17T21:19:12.750Z,101441.31
2023-01-17T21:21:41.107Z,101439.47
2023-01-17T21:24:09.787Z,101437.53
2023-01-17T21:26:39.726Z,101436.56
2023-01-17T21:29:08.139Z,101436.50
2023-01-17T21:31:37.629Z,101426.72
2023-01-17T21:34:08.441Z,101430.19
2023-01-17T21:36:42.155Z,101429.91
2023-01-17T21:39:19.928Z,101423.56
2023-01-17T21:41:50.433Z,101427.00
2023-01-17T21:44:23.807Z,101426.88
2023-01-17T21:46:56.505Z,101429.31
2023-01-17T21:49:25.267Z,101432.66
2023-01-17T21:51:53.691Z,101434.22
2023-01-17T21:54:42.450Z,101432.31
2023-01-17T21:57:29.537Z,101437.38
2023-01-17T21:59:57.948Z,101426.56
2023-01-17T22:02:26.420Z,101430.03
2023-01-17T22:04:57.739Z,101439.72
2023-01-17T22:07:27.949Z,101437.75
2023-01-17T22:09:57.600Z,101436.56
2023-01-17T22:12:26.123Z,101437.19
2023-01-17T22:14:54.531Z,101436.25
2023-01-17T22:17:23.014Z,101437.91
2023-01-17T22:19:51.578Z,101423.50
2023-01-17T22:22:19.880Z,101431.34
2023-01-17T22:24:48.146Z,101432.06
2023-01-17T22:27:16.449Z,101428.28
2023-01-17T22:29:44.733Z,101431.63
2023-01-17T22:32:13.033Z,101432.47
2023-01-17T22:34:41.348Z,101426.09
2023-01-17T22:37:10.877Z,101438.47
2023-01-17T22:39:40.176Z,101439.38
2023-01-17T22:42:09.480Z,101435.75
2023-01-17T22:44:37.794Z,101447.03
2023-01-17T22:47:06.476Z,101442.66
2023-01-17T22:49:34.751Z,101442.72
2023-01-17T22:52:03.013Z,101440.28
2023-01-17T22:54:31.421Z,101442.13
2023-01-17T22:56:59.843Z,101441.59
2023-01-17T22:59:28.310Z,101445.41
2023-01-17T23:01:56.578Z,101433.09
2023-01-17T23:04:24.845Z,101443.59
2023-01-17T23:06:53.216Z,101446.09
2023-01-17T23:09:21.654Z,101446.00
2023-01-17T23:11:53.625Z,101453.13
2023-01-17T23:14:31.484Z,101448.78
2023-01-17T23:17:20.937Z,101450.78
2023-01-17T23:19:57.991Z,101449.22
2023-01-17T23:22:29.047Z,101453.88
2023-01-17T23:25:09.523Z,101456.84
2023-01-17T23:28:06.112Z,101458.03
2023-01-17T23:30:42.831Z,101452.97
2023-01-17T23:33:14.577Z,101455.00
2023-01-17T23:35:45.136Z,101458.81
2023-01-17T23:38:30.099Z,101455.47
2023-01-17T23:41:23.631Z,101460.94
2023-01-17T23:43:53.438Z,101453.97
2023-01-17T23:46:22.271Z,101455.91
2023-01-17T23:48:50.660Z,101459.56
2023-01-17T23:51:19.434Z,101464.06
2023-01-17T23:53:47.939Z,101458.00
2023-01-17T23:56:21.916Z,101455.34
2023-01-17T23:58:50.510Z,101463.34
